Time;durP1;ratioP1;P1;durP2;ratioP2;P2;SDS_P1;SDS_P2;PMS_P1;PMS_P2;Temp;Humidity;BMP_temperature;BMP_pressure;BME280_temperature;BME280_humidity;BME280_pressure;Samples;Min_cycle;Max_cycle;Signal;HPM_P1;HPM_P2
2023/12/28 00:01:47;;;;;;;5.00;2.60;;;5.80;99.90;;;;;;4958130;28;20289;-83
2023/12/28 00:04:14;;;;;;;3.40;2.30;;;5.80;99.90;;;;;;4962905;28;20252;-84
2023/12/28 00:06:42;;;;;;;3.83;2.17;;;5.90;99.90;;;;;;4975079;28;20643;-84
2023/12/28 00:09:09;;;;;;;4.80;2.20;;;5.80;99.90;;;;;;4963838;28;20704;-83
2023/12/28 00:11:36;;;;;;;4.40;2.30;;;5.90;99.90;;;;;;4961304;28;20232;-83
2023/12/28 00:14:03;;;;;;;3.60;1.70;;;5.90;99.90;;;;;;4963192;28;20252;-83
2023/12/28 00:16:32;;;;;;;4.17;1.90;;;5.90;99.90;;;;;;4962402;28;20674;-83
2023/12/28 00:18:59;;;;;;;3.07;2.10;;;6.00;99.90;;;;;;4984756;28;20462;-81
2023/12/28 00:21:26;;;;;;;3.17;2.00;;;6.00;99.90;;;;;;4953268;28;20220;-81
2023/12/28 00:23:54;;;;;;;3.00;2.00;;;6.10;99.90;;;;;;4963539;28;20300;-81
2023/12/28 00:26:21;;;;;;;4.17;1.90;;;6.10;99.90;;;;;;4963983;28;20229;-81
2023/12/28 00:28:58;;;;;;;3.57;1.73;;;6.20;99.90;;;;;;4963017;28;20244;-82
2023/12/28 00:31:25;;;;;;;5.60;2.00;;;6.20;99.90;;;;;;4961224;28;20589;-81
2023/12/28 00:33:52;;;;;;;3.30;2.00;;;6.20;99.90;;;;;;4965453;28;20242;-81
2023/12/28 00:36:20;;;;;;;3.57;1.93;;;6.30;99.90;;;;;;4963253;28;20234;-81
2023/12/28 00:38:47;;;;;;;3.17;1.70;;;6.30;99.90;;;;;;4963830;28;20324;-82
2023/12/28 00:41:15;;;;;;;3.17;1.80;;;6.30;99.90;;;;;;4968533;28;20612;-82
2023/12/28 00:43:43;;;;;;;2.87;1.70;;;6.30;99.90;;;;;;4956238;28;20254;-81
2023/12/28 00:46:10;;;;;;;2.83;1.70;;;6.40;99.90;;;;;;4958579;28;20302;-81
2023/12/28 00:48:37;;;;;;;3.87;2.00;;;6.40;99.90;;;;;;4957450;28;20234;-82
2023/12/28 00:51:04;;;;;;;3.40;1.77;;;6.40;99.90;;;;;;4959076;28;20657;-82
2023/12/28 00:53:31;;;;;;;3.50;1.83;;;6.50;99.90;;;;;;4957312;28;20639;-81
2023/12/28 00:55:58;;;;;;;3.83;1.90;;;6.50;99.90;;;;;;4964179;28;20230;-81
2023/12/28 00:58:26;;;;;;;3.23;1.80;;;6.50;99.90;;;;;;4967141;28;20239;-81
2023/12/28 01:00:56;;;;;;;3.47;1.90;;;6.50;99.90;;;;;;4963793;28;20244;-81
2023/12/28 01:03:23;;;;;;;3.57;2.00;;;6.50;99.90;;;;;;4986796;28;20214;-81
2023/12/28 01:05:52;;;;;;;2.43;1.73;;;6.50;99.90;;;;;;4965004;28;20227;-81
2023/12/28 01:08:19;;;;;;;3.70;1.93;;;6.50;99.90;;;;;;4971566;28;20314;-81
2023/12/28 01:10:46;;;;;;;3.07;1.80;;;6.50;99.90;;;;;;4966195;28;20241;-81
2023/12/28 01:13:12;;;;;;;2.57;1.70;;;6.50;99.90;;;;;;4964827;28;20241;-81
2023/12/28 01:15:42;;;;;;;4.23;1.90;;;6.50;99.90;;;;;;4967490;28;20235;-81
2023/12/28 01:18:08;;;;;;;3.57;2.00;;;6.50;99.90;;;;;;4966132;28;20786;-81
2023/12/28 01:20:35;;;;;;;4.43;1.83;;;6.50;99.90;;;;;;4965027;28;20767;-81
2023/12/28 01:23:02;;;;;;;4.03;1.90;;;6.50;99.90;;;;;;4964348;28;20597;-80
2023/12/28 01:25:29;;;;;;;1.67;1.47;;;6.50;99.90;;;;;;4962714;28;20731;-81
2023/12/28 01:27:56;;;;;;;3.50;1.80;;;6.50;99.90;;;;;;4965019;28;20230;-81
2023/12/28 01:30:23;;;;;;;4.27;1.70;;;6.50;99.90;;;;;;4982148;28;20253;-81
2023/12/28 01:32:51;;;;;;;3.43;2.13;;;6.50;99.90;;;;;;4965231;28;20719;-82
2023/12/28 01:35:18;;;;;;;2.17;1.87;;;6.50;99.90;;;;;;4965864;28;20251;-81
2023/12/28 01:37:45;;;;;;;3.10;2.00;;;6.50;99.90;;;;;;4963398;28;20419;-81
2023/12/28 01:40:12;;;;;;;2.87;1.50;;;6.50;99.90;;;;;;4966776;28;20225;-81
2023/12/28 01:42:39;;;;;;;3.43;2.00;;;6.50;99.90;;;;;;4964790;28;21146;-81
2023/12/28 01:45:06;;;;;;;2.77;1.80;;;6.60;99.90;;;;;;4964309;28;20485;-82
2023/12/28 01:47:33;;;;;;;3.97;1.93;;;6.50;99.90;;;;;;4964872;28;20228;-81
2023/12/28 01:50:02;;;;;;;3.50;1.77;;;6.60;99.90;;;;;;4962671;28;20221;-81
2023/12/28 01:52:28;;;;;;;3.47;2.00;;;6.60;99.90;;;;;;4981951;28;20235;-81
2023/12/28 01:54:56;;;;;;;3.43;2.07;;;6.60;99.90;;;;;;4964063;28;20483;-81
2023/12/28 01:57:24;;;;;;;3.57;2.00;;;6.60;99.90;;;;;;4961330;28;20308;-81
2023/12/28 01:59:51;;;;;;;3.37;1.97;;;6.60;99.90;;;;;;4965174;28;20226;-82
2023/12/28 02:02:18;;;;;;;3.80;2.30;;;6.60;99.90;;;;;;4959211;28;20659;-82
2023/12/28 02:04:46;;;;;;;2.77;2.03;;;6.60;99.90;;;;;;4964431;28;20214;-82
2023/12/28 02:07:15;;;;;;;7.47;2.50;;;6.70;99.90;;;;;;4965728;28;20315;-82
2023/12/28 02:09:42;;;;;;;2.10;1.90;;;6.70;99.90;;;;;;4960245;28;20299;-82
2023/12/28 02:12:09;;;;;;;3.83;2.30;;;6.70;99.90;;;;;;4966355;28;20905;-82
2023/12/28 02:14:36;;;;;;;3.13;2.30;;;6.70;99.90;;;;;;4968427;28;20311;-82
2023/12/28 02:17:10;;;;;;;2.87;2.43;;;6.80;99.90;;;;;;4962027;28;20240;-82
2023/12/28 02:19:51;;;;;;;3.67;2.50;;;6.80;99.90;;;;;;4962233;28;20574;-82
2023/12/28 02:22:21;;;;;;;2.47;2.07;;;6.80;99.90;;;;;;4962383;28;20243;-81
2023/12/28 02:24:57;;;;;;;3.60;2.20;;;6.80;99.90;;;;;;4993200;28;20756;-81
2023/12/28 02:27:24;;;;;;;3.93;2.53;;;6.90;99.90;;;;;;4963653;28;20222;-81
2023/12/28 02:29:51;;;;;;;4.10;2.73;;;6.90;99.90;;;;;;4971276;28;20251;-81
2023/12/28 02:32:24;;;;;;;3.63;2.43;;;6.90;99.90;;;;;;4960818;28;20252;-81
2023/12/28 02:34:56;;;;;;;4.87;2.80;;;6.90;99.90;;;;;;4963065;28;20218;-81
2023/12/28 02:37:24;;;;;;;3.57;2.40;;;7.00;99.90;;;;;;4968172;28;20242;-81
2023/12/28 02:39:54;;;;;;;6.20;2.80;;;7.00;99.90;;;;;;4961856;28;20229;-81
2023/12/28 02:42:22;;;;;;;3.33;2.20;;;7.00;99.90;;;;;;4965116;28;20268;-81
2023/12/28 02:44:51;;;;;;;2.87;2.30;;;7.00;99.90;;;;;;4961331;28;20225;-81
2023/12/28 02:47:18;;;;;;;6.33;2.83;;;7.10;99.90;;;;;;4960450;28;20719;-82
2023/12/28 02:49:44;;;;;;;3.83;2.50;;;7.10;99.90;;;;;;4964718;28;20237;-81
2023/12/28 02:52:11;;;;;;;3.97;2.50;;;7.10;99.90;;;;;;4969435;28;20248;-81
2023/12/28 02:54:38;;;;;;;2.97;2.20;;;7.10;99.90;;;;;;4963386;28;20229;-82
2023/12/28 02:57:05;;;;;;;4.47;2.80;;;7.10;99.90;;;;;;4983642;28;20230;-82
2023/12/28 02:59:33;;;;;;;4.80;2.40;;;7.10;99.90;;;;;;4961586;28;20260;-82
2023/12/28 03:02:00;;;;;;;4.10;2.70;;;7.10;99.90;;;;;;4962601;28;20454;-82
2023/12/28 03:04:27;;;;;;;4.07;2.90;;;7.10;99.90;;;;;;4967383;28;20283;-82
2023/12/28 03:06:54;;;;;;;3.07;2.57;;;7.10;99.90;;;;;;4967580;28;20276;-82
2023/12/28 03:09:21;;;;;;;6.07;2.93;;;7.10;99.90;;;;;;4965304;28;20482;-82
2023/12/28 03:11:50;;;;;;;4.43;2.80;;;7.10;99.90;;;;;;4959451;28;20328;-82
2023/12/28 03:14:17;;;;;;;4.43;3.20;;;7.00;99.90;;;;;;4959589;28;20752;-82
2023/12/28 03:16:46;;;;;;;3.67;2.63;;;7.00;99.90;;;;;;4961183;28;20246;-82
2023/12/28 03:19:13;;;;;;;4.07;2.80;;;7.00;99.90;;;;;;4961974;28;20674;-82
2023/12/28 03:21:40;;;;;;;4.87;2.80;;;7.00;99.90;;;;;;4963131;28;20490;-82
2023/12/28 03:24:07;;;;;;;4.30;2.90;;;7.00;99.90;;;;;;4961708;28;20225;-82
2023/12/28 03:26:39;;;;;;;3.93;2.67;;;7.00;99.90;;;;;;4984817;28;20230;-81
2023/12/28 03:29:06;;;;;;;3.93;2.93;;;7.00;99.90;;;;;;4962576;28;20233;-82
2023/12/28 03:31:33;;;;;;;4.17;2.80;;;7.00;99.90;;;;;;4965693;28;20318;-81
2023/12/28 03:34:02;;;;;;;4.37;2.80;;;6.90;99.90;;;;;;4962033;28;20233;-81
2023/12/28 03:36:29;;;;;;;4.40;3.00;;;6.90;99.90;;;;;;4968335;28;20293;-81
2023/12/28 03:38:56;;;;;;;5.23;3.03;;;6.90;99.90;;;;;;4958431;28;20230;-80
2023/12/28 03:41:23;;;;;;;5.57;2.83;;;6.90;99.90;;;;;;4959588;28;20238;-81
2023/12/28 03:43:50;;;;;;;5.63;3.17;;;6.90;99.90;;;;;;4973522;28;20234;-81
2023/12/28 03:46:17;;;;;;;7.33;3.20;;;6.90;99.90;;;;;;4960640;28;20230;-81
2023/12/28 03:48:44;;;;;;;5.20;2.80;;;7.00;99.90;;;;;;4968116;28;20387;-82
2023/12/28 03:51:16;;;;;;;4.37;2.80;;;7.00;99.90;;;;;;4982267;28;20230;-82
2023/12/28 03:53:43;;;;;;;5.77;3.13;;;7.00;99.90;;;;;;4957917;28;20233;-82
2023/12/28 03:56:19;;;;;;;4.43;2.80;;;6.90;99.90;;;;;;4960139;28;20747;-82
2023/12/28 03:58:46;;;;;;;4.23;2.77;;;6.90;99.90;;;;;;4958633;28;20218;-82
2023/12/28 04:01:13;;;;;;;6.53;2.77;;;6.90;99.90;;;;;;4955641;28;20247;-82
2023/12/28 04:03:40;;;;;;;4.43;3.20;;;6.90;99.90;;;;;;4956306;28;20233;-82
2023/12/28 04:06:08;;;;;;;4.47;2.60;;;6.90;99.90;;;;;;4959553;28;20660;-82
2023/12/28 04:08:36;;;;;;;7.33;3.00;;;6.90;99.90;;;;;;4976756;28;20232;-82
2023/12/28 04:11:03;;;;;;;4.60;2.80;;;6.90;99.90;;;;;;4979185;28;20721;-82
2023/12/28 04:13:30;;;;;;;4.30;2.93;;;6.90;99.90;;;;;;4965460;28;20610;-83
2023/12/28 04:15:57;;;;;;;5.50;3.00;;;6.90;99.90;;;;;;4956323;28;20483;-83
2023/12/28 04:18:24;;;;;;;5.70;3.13;;;6.80;99.90;;;;;;4964404;28;20238;-83
2023/12/28 04:20:51;;;;;;;4.23;2.70;;;6.80;99.90;;;;;;4962891;28;20589;-82
2023/12/28 04:23:18;;;;;;;3.30;2.70;;;6.80;99.90;;;;;;4956295;28;20230;-83
2023/12/28 04:25:46;;;;;;;4.03;3.03;;;6.90;99.90;;;;;;4966503;28;20252;-81
2023/12/28 04:28:13;;;;;;;3.67;2.80;;;6.80;99.90;;;;;;4992229;28;20725;-81
2023/12/28 04:30:40;;;;;;;4.27;2.97;;;6.80;99.90;;;;;;4962715;28;20652;-81
2023/12/28 04:33:07;;;;;;;4.00;2.87;;;6.80;99.90;;;;;;4968468;28;21077;-81
2023/12/28 04:35:34;;;;;;;5.13;2.53;;;6.80;99.90;;;;;;4969396;28;20244;-81
2023/12/28 04:38:01;;;;;;;4.10;3.00;;;6.80;99.90;;;;;;4967747;28;20224;-81
2023/12/28 04:40:28;;;;;;;4.40;2.53;;;6.80;99.90;;;;;;4963091;28;20225;-81
2023/12/28 04:42:56;;;;;;;4.87;2.70;;;6.80;99.90;;;;;;4995244;28;20728;-81
2023/12/28 04:45:23;;;;;;;5.43;3.00;;;6.70;99.90;;;;;;4965309;28;20304;-81
2023/12/28 04:47:50;;;;;;;3.07;2.63;;;6.70;99.90;;;;;;4985762;28;20248;-81
2023/12/28 04:50:16;;;;;;;4.80;2.50;;;6.70;99.90;;;;;;4960191;28;20271;-81
2023/12/28 04:52:43;;;;;;;4.40;2.93;;;6.60;99.90;;;;;;4962517;28;20323;-81
2023/12/28 04:55:10;;;;;;;3.83;2.90;;;6.60;99.90;;;;;;4963958;28;20244;-81
2023/12/28 04:57:36;;;;;;;3.57;2.57;;;6.60;99.90;;;;;;4967003;28;20237;-81
2023/12/28 05:00:06;;;;;;;5.13;2.63;;;6.60;99.90;;;;;;4963348;28;20230;-81
2023/12/28 05:02:33;;;;;;;3.93;2.43;;;6.50;99.90;;;;;;4966943;28;20367;-81
2023/12/28 05:05:01;;;;;;;4.10;2.90;;;6.60;99.90;;;;;;4969743;28;20640;-80
2023/12/28 05:07:28;;;;;;;3.97;2.80;;;6.50;99.90;;;;;;4965328;28;20758;-80
2023/12/28 05:09:55;;;;;;;4.17;2.87;;;6.50;99.90;;;;;;4987499;28;20301;-81
2023/12/28 05:12:21;;;;;;;5.13;2.87;;;6.60;99.90;;;;;;4967740;28;20729;-83
2023/12/28 05:14:48;;;;;;;4.10;2.57;;;6.60;99.90;;;;;;4961904;28;20762;-83
2023/12/28 05:17:16;;;;;;;5.23;2.83;;;6.60;99.90;;;;;;4955893;28;20226;-83
2023/12/28 05:19:43;;;;;;;6.57;3.30;;;6.60;99.90;;;;;;4963599;28;20273;-82
2023/12/28 05:22:11;;;;;;;7.40;3.30;;;6.60;99.90;;;;;;4967632;28;20540;-82
2023/12/28 05:24:37;;;;;;;4.90;2.97;;;6.60;99.90;;;;;;4987166;28;20307;-81
2023/12/28 05:27:04;;;;;;;4.53;2.80;;;6.60;99.90;;;;;;4961269;28;20229;-82
2023/12/28 05:29:31;;;;;;;5.93;2.53;;;6.60;99.90;;;;;;4962046;28;20712;-82
2023/12/28 05:31:58;;;;;;;7.30;3.33;;;6.50;99.90;;;;;;4960636;28;20226;-83
2023/12/28 05:34:26;;;;;;;8.47;3.20;;;6.50;99.90;;;;;;4962592;28;20217;-82
2023/12/28 05:36:53;;;;;;;5.67;2.97;;;6.50;99.90;;;;;;4956462;28;20720;-82
2023/12/28 05:39:20;;;;;;;4.67;2.90;;;6.50;99.90;;;;;;4958620;28;20229;-82
2023/12/28 05:41:47;;;;;;;5.13;2.80;;;6.50;99.90;;;;;;4959031;28;20228;-82
2023/12/28 05:44:14;;;;;;;6.23;3.00;;;6.50;99.90;;;;;;4956802;28;20259;-82
2023/12/28 05:46:41;;;;;;;5.47;2.60;;;6.50;99.90;;;;;;4961471;28;20218;-82
2023/12/28 05:49:09;;;;;;;5.33;2.70;;;6.50;99.90;;;;;;4963297;28;20223;-82
2023/12/28 05:51:40;;;;;;;6.87;2.93;;;6.50;99.90;;;;;;4962042;28;20696;-83
2023/12/28 05:54:08;;;;;;;4.23;3.03;;;6.50;99.90;;;;;;4958966;28;20224;-82
2023/12/28 05:56:35;;;;;;;5.63;3.33;;;6.50;99.90;;;;;;4959738;28;20232;-82
2023/12/28 05:59:02;;;;;;;4.00;2.63;;;6.60;99.90;;;;;;4964198;28;20639;-81
2023/12/28 06:01:29;;;;;;;5.17;3.33;;;6.60;99.90;;;;;;4960988;28;21180;-82
2023/12/28 06:03:56;;;;;;;5.40;3.17;;;6.70;99.90;;;;;;4963414;28;20461;-82
2023/12/28 06:06:23;;;;;;;5.23;2.60;;;6.70;99.90;;;;;;4959844;28;20231;-82
2023/12/28 06:08:52;;;;;;;6.23;2.77;;;6.70;99.90;;;;;;4959716;28;20242;-82
2023/12/28 06:11:19;;;;;;;4.43;2.77;;;6.80;99.90;;;;;;4958815;28;20239;-83
2023/12/28 06:13:46;;;;;;;5.33;3.00;;;6.90;99.90;;;;;;4960184;28;20241;-82
2023/12/28 06:16:13;;;;;;;4.57;2.83;;;6.90;99.90;;;;;;4957763;28;20405;-83
2023/12/28 06:18:40;;;;;;;5.40;2.80;;;6.90;99.90;;;;;;4959615;28;20671;-85
2023/12/28 06:21:08;;;;;;;5.47;2.90;;;7.00;99.90;;;;;;4956107;28;20319;-82
2023/12/28 06:23:35;;;;;;;4.10;2.63;;;6.90;99.90;;;;;;4959681;28;20226;-82
2023/12/28 06:26:07;;;;;;;5.67;2.43;;;7.00;99.90;;;;;;4961142;28;20239;-84
2023/12/28 06:28:34;;;;;;;6.57;3.07;;;7.10;99.90;;;;;;4959443;28;20257;-82
2023/12/28 06:31:03;;;;;;;6.87;2.67;;;7.10;99.90;;;;;;4961479;28;21390;-82
2023/12/28 06:33:30;;;;;;;4.70;2.40;;;7.20;99.90;;;;;;4959738;28;20641;-82
2023/12/28 06:35:57;;;;;;;4.27;2.60;;;7.20;99.90;;;;;;4965836;28;20226;-83
2023/12/28 06:38:25;;;;;;;4.40;2.50;;;7.30;99.90;;;;;;4958545;28;20647;-83
2023/12/28 06:40:52;;;;;;;5.73;2.90;;;7.40;99.90;;;;;;4966004;28;20241;-84
2023/12/28 06:43:20;;;;;;;5.77;2.77;;;7.40;99.90;;;;;;4962404;28;20244;-83
2023/12/28 06:45:47;;;;;;;4.57;2.80;;;7.40;99.90;;;;;;4962288;28;20228;-83
2023/12/28 06:48:14;;;;;;;4.47;2.50;;;7.50;99.90;;;;;;4962928;28;20225;-83
2023/12/28 06:50:40;;;;;;;7.20;2.80;;;7.50;99.90;;;;;;4956404;28;20733;-83
2023/12/28 06:53:07;;;;;;;5.23;2.43;;;7.60;99.90;;;;;;4960707;28;20329;-83
2023/12/28 06:55:34;;;;;;;6.33;3.20;;;7.60;99.90;;;;;;4977050;28;20238;-83
2023/12/28 06:58:01;;;;;;;5.90;2.90;;;7.70;99.90;;;;;;4961588;28;20531;-83
2023/12/28 07:00:29;;;;;;;5.73;2.73;;;7.70;99.90;;;;;;4961432;28;20233;-80
2023/12/28 07:02:56;;;;;;;4.50;2.30;;;7.70;99.90;;;;;;4944344;28;20226;-80
2023/12/28 07:05:22;;;;;;;6.57;2.93;;;7.80;99.90;;;;;;4960619;28;20452;-81
2023/12/28 07:07:49;;;;;;;2.93;2.37;;;7.80;99.90;;;;;;4962513;28;20263;-82
2023/12/28 07:10:16;;;;;;;5.80;2.50;;;7.90;99.90;;;;;;4946427;28;20309;-82
2023/12/28 07:12:43;;;;;;;6.97;2.60;;;7.90;99.90;;;;;;4958482;28;20238;-81
2023/12/28 07:15:13;;;;;;;4.70;2.70;;;7.90;99.90;;;;;;4961141;28;20792;-82
2023/12/28 07:17:41;;;;;;;5.07;2.50;;;8.00;99.90;;;;;;4958144;28;20226;-82
2023/12/28 07:20:10;;;;;;;4.50;2.40;;;8.00;99.90;;;;;;4960651;28;20226;-82
2023/12/28 07:22:37;;;;;;;7.37;2.70;;;8.00;99.90;;;;;;4963757;28;20231;-81
2023/12/28 07:25:05;;;;;;;5.93;3.17;;;8.10;99.90;;;;;;4980651;28;20272;-83
2023/12/28 07:27:32;;;;;;;4.23;2.23;;;8.10;99.90;;;;;;4965436;28;20251;-82
2023/12/28 07:29:59;;;;;;;5.33;2.37;;;8.10;99.90;;;;;;4960685;28;20252;-82
2023/12/28 07:32:26;;;;;;;3.90;2.23;;;8.10;99.90;;;;;;4954751;28;20264;-82
2023/12/28 07:34:54;;;;;;;5.03;2.20;;;8.10;99.90;;;;;;4963863;28;20233;-83
2023/12/28 07:37:21;;;;;;;5.57;2.40;;;8.00;99.90;;;;;;4960428;28;20654;-83
2023/12/28 07:39:48;;;;;;;5.67;2.30;;;8.00;99.90;;;;;;4957964;28;20318;-83
2023/12/28 07:42:15;;;;;;;5.00;2.10;;;8.00;99.90;;;;;;4982617;28;20309;-83
2023/12/28 07:44:42;;;;;;;6.53;2.30;;;8.00;99.90;;;;;;4967848;28;20219;-82
2023/12/28 07:47:09;;;;;;;5.40;2.40;;;8.10;99.90;;;;;;4977700;28;20402;-82
2023/12/28 07:49:35;;;;;;;6.77;3.00;;;8.10;99.90;;;;;;4960429;28;20249;-83
2023/12/28 07:52:04;;;;;;;14.47;2.50;;;8.10;99.90;;;;;;4962143;28;20653;-83
2023/12/28 07:54:30;;;;;;;5.50;2.13;;;8.10;99.90;;;;;;4966974;28;20434;-83
2023/12/28 07:56:57;;;;;;;6.20;2.30;;;8.20;99.90;;;;;;4966886;28;20664;-83
2023/12/28 07:59:24;;;;;;;6.10;2.10;;;8.20;99.90;;;;;;4955905;28;20325;-83
2023/12/28 08:01:53;;;;;;;6.07;2.00;;;8.10;99.90;;;;;;4956787;28;20345;-82
2023/12/28 08:04:20;;;;;;;5.47;2.37;;;8.10;99.90;;;;;;4957611;28;21557;-83
2023/12/28 08:06:47;;;;;;;9.63;2.60;;;8.10;99.90;;;;;;4954020;28;20265;-83
2023/12/28 08:09:15;;;;;;;5.07;2.17;;;8.10;99.90;;;;;;4955925;28;20241;-83
2023/12/28 08:11:42;;;;;;;4.43;2.20;;;8.00;99.90;;;;;;4976569;28;20312;-82
2023/12/28 08:14:08;;;;;;;5.50;2.10;;;8.00;99.90;;;;;;4956422;28;20873;-83
2023/12/28 08:16:35;;;;;;;6.63;2.23;;;8.00;99.90;;;;;;4961672;28;20322;-83
2023/12/28 08:19:02;;;;;;;6.70;2.40;;;8.00;99.90;;;;;;4950473;28;20265;-83
2023/12/28 08:21:29;;;;;;;7.00;2.23;;;8.00;99.90;;;;;;4948146;28;20223;-83
2023/12/28 08:23:56;;;;;;;6.90;2.30;;;8.00;99.90;;;;;;4955500;28;20777;-82
2023/12/28 08:26:24;;;;;;;7.40;2.30;;;8.00;99.90;;;;;;4958580;28;20317;-83
2023/12/28 08:28:51;;;;;;;7.47;2.70;;;8.00;99.90;;;;;;4964825;28;20253;-82
2023/12/28 08:31:18;;;;;;;6.50;2.20;;;8.10;99.90;;;;;;4959271;28;20254;-83
2023/12/28 08:33:45;;;;;;;5.10;2.20;;;8.10;99.90;;;;;;4957459;28;20230;-83
2023/12/28 08:36:12;;;;;;;8.70;2.50;;;8.20;99.90;;;;;;4963083;28;20310;-83
2023/12/28 08:38:39;;;;;;;6.47;2.17;;;8.30;99.90;;;;;;4983821;28;20230;-82
2023/12/28 08:41:08;;;;;;;8.30;2.40;;;8.30;99.90;;;;;;4961960;28;20321;-82
2023/12/28 08:43:37;;;;;;;6.13;2.07;;;8.40;99.90;;;;;;4964128;28;20292;-83
2023/12/28 08:46:04;;;;;;;11.20;2.37;;;8.50;99.90;;;;;;4963099;28;20614;-83
2023/12/28 08:48:30;;;;;;;6.60;2.40;;;8.50;99.90;;;;;;4976531;28;20720;-83
2023/12/28 08:50:57;;;;;;;8.73;2.57;;;8.60;99.90;;;;;;4962651;28;20300;-82
2023/12/28 08:53:24;;;;;;;9.67;2.30;;;8.60;99.90;;;;;;4960432;28;20592;-83
2023/12/28 08:55:50;;;;;;;5.27;2.17;;;8.60;99.90;;;;;;4958264;28;20529;-83
2023/12/28 08:58:17;;;;;;;6.27;2.17;;;8.70;99.90;;;;;;4957947;28;20233;-83
2023/12/28 09:00:46;;;;;;;8.67;2.30;;;8.80;99.90;;;;;;4959987;28;20221;-83
2023/12/28 09:03:13;;;;;;;5.57;2.20;;;8.80;99.90;;;;;;4990422;28;20223;-83
2023/12/28 09:05:40;;;;;;;5.07;2.03;;;8.80;99.90;;;;;;4959349;28;20344;-82
2023/12/28 09:08:07;;;;;;;5.87;2.10;;;8.90;99.90;;;;;;4957523;28;20236;-83
2023/12/28 09:10:34;;;;;;;8.07;2.17;;;8.90;99.90;;;;;;4954985;28;20274;-83
2023/12/28 09:13:01;;;;;;;7.43;2.07;;;8.90;99.90;;;;;;4991474;28;20749;-82
2023/12/28 09:15:28;;;;;;;11.20;3.60;;;9.00;99.90;;;;;;4972120;28;20309;-82
2023/12/28 09:17:57;;;;;;;5.80;2.33;;;9.00;99.90;;;;;;4960987;28;20817;-83
2023/12/28 09:20:23;;;;;;;6.87;1.90;;;9.00;99.90;;;;;;4962963;28;20741;-82
2023/12/28 09:22:53;;;;;;;5.37;2.03;;;9.10;99.90;;;;;;4962970;28;20606;-83
2023/12/28 09:25:20;;;;;;;6.63;2.50;;;9.10;99.90;;;;;;4961815;28;20281;-83
2023/12/28 09:27:47;;;;;;;6.60;1.93;;;9.20;99.90;;;;;;4959505;28;20235;-82
2023/12/28 09:30:14;;;;;;;8.80;2.23;;;9.20;99.90;;;;;;4947655;28;20230;-83
2023/12/28 09:32:41;;;;;;;4.57;1.90;;;9.20;99.90;;;;;;4942855;28;20719;-83
2023/12/28 09:35:09;;;;;;;6.00;2.13;;;9.30;99.90;;;;;;4946212;28;20253;-83
2023/12/28 09:37:36;;;;;;;9.13;2.60;;;9.30;99.90;;;;;;4942615;28;20231;-83
2023/12/28 09:40:03;;;;;;;6.60;2.43;;;9.40;99.90;;;;;;4943064;28;20808;-83
2023/12/28 09:42:33;;;;;;;7.10;2.07;;;9.40;99.90;;;;;;4965858;28;20234;-84
2023/12/28 09:45:00;;;;;;;6.87;2.33;;;9.50;99.90;;;;;;4962767;28;20433;-83
2023/12/28 09:47:27;;;;;;;5.87;1.90;;;9.50;99.90;;;;;;4962076;28;20297;-83
2023/12/28 09:49:54;;;;;;;10.10;2.33;;;9.50;99.90;;;;;;4964789;28;20227;-82
2023/12/28 09:52:22;;;;;;;8.87;2.23;;;9.60;99.90;;;;;;4990138;28;20234;-82
2023/12/28 09:54:49;;;;;;;7.57;2.07;;;9.60;99.90;;;;;;4964056;28;20233;-83
2023/12/28 09:57:15;;;;;;;10.93;2.30;;;9.60;99.90;;;;;;4967233;28;20389;-83
2023/12/28 09:59:41;;;;;;;8.67;2.13;;;9.70;99.90;;;;;;4962717;28;20318;-82
2023/12/28 10:02:09;;;;;;;11.30;2.87;;;9.70;99.90;;;;;;4963379;28;20246;-82
2023/12/28 10:04:37;;;;;;;7.97;2.87;;;9.70;99.90;;;;;;4964576;28;20239;-82
2023/12/28 10:07:04;;;;;;;6.63;2.20;;;9.80;99.90;;;;;;4966672;28;20230;-83
2023/12/28 10:09:32;;;;;;;9.57;2.37;;;9.80;99.90;;;;;;4964658;28;20797;-83
2023/12/28 10:11:59;;;;;;;8.33;2.20;;;9.90;99.90;;;;;;4961251;28;20721;-83
2023/12/28 10:14:26;;;;;;;7.67;2.30;;;9.90;99.90;;;;;;4961933;28;20237;-83
2023/12/28 10:16:53;;;;;;;9.77;3.00;;;9.90;99.90;;;;;;4964089;28;20235;-83
2023/12/28 10:19:22;;;;;;;8.87;2.53;;;9.90;99.90;;;;;;4964937;28;20320;-83
2023/12/28 10:21:49;;;;;;;9.73;2.37;;;10.00;99.90;;;;;;4964890;28;20241;-84
2023/12/28 10:24:16;;;;;;;7.17;2.20;;;10.00;99.90;;;;;;4964384;28;20329;-84
2023/12/28 10:26:44;;;;;;;6.20;2.33;;;10.00;99.90;;;;;;4965567;28;20262;-84
2023/12/28 10:29:11;;;;;;;7.13;2.60;;;10.00;99.90;;;;;;4995923;28;20249;-83
2023/12/28 10:31:42;;;;;;;7.77;2.07;;;10.00;99.90;;;;;;4966595;28;20219;-83
2023/12/28 10:34:08;;;;;;;7.70;2.40;;;10.00;99.90;;;;;;4980710;28;20223;-83
2023/12/28 10:36:36;;;;;;;9.13;2.30;;;10.00;99.90;;;;;;4971647;28;20272;-84
2023/12/28 10:39:04;;;;;;;8.90;2.20;;;10.00;99.90;;;;;;4963524;28;20250;-83
2023/12/28 10:41:35;;;;;;;8.03;2.53;;;10.00;99.90;;;;;;4966310;28;20298;-84
2023/12/28 10:44:04;;;;;;;7.57;2.17;;;10.00;99.90;;;;;;4962972;28;20398;-83
2023/12/28 10:46:32;;;;;;;7.47;2.40;;;10.00;99.90;;;;;;4966336;28;20318;-84
2023/12/28 10:49:02;;;;;;;10.40;2.63;;;10.10;99.90;;;;;;4966399;28;20661;-84
2023/12/28 10:51:29;;;;;;;8.13;2.57;;;10.10;99.90;;;;;;4964128;28;20246;-84
2023/12/28 10:54:06;;;;;;;10.07;2.50;;;10.10;99.90;;;;;;4976857;28;20317;-83
2023/12/28 10:56:37;;;;;;;9.77;2.53;;;10.10;99.90;;;;;;4959056;28;20321;-82
2023/12/28 10:59:15;;;;;;;11.10;2.47;;;10.10;99.90;;;;;;4964649;28;20485;-83
2023/12/28 11:01:44;;;;;;;11.17;3.23;;;10.00;99.90;;;;;;4969794;28;20252;-83
2023/12/28 11:04:18;;;;;;;9.83;2.53;;;10.00;99.90;;;;;;4964532;28;20218;-83
2023/12/28 11:06:47;;;;;;;9.37;2.67;;;10.00;99.90;;;;;;4966053;28;20308;-83
2023/12/28 11:09:16;;;;;;;8.93;2.63;;;10.00;99.90;;;;;;4960811;28;20235;-83
2023/12/28 11:11:44;;;;;;;10.90;3.30;;;10.00;99.90;;;;;;4959720;28;20738;-82
2023/12/28 11:14:13;;;;;;;9.37;3.23;;;10.00;99.90;;;;;;4963823;28;20229;-83
2023/12/28 11:16:42;;;;;;;11.53;2.37;;;10.00;99.90;;;;;;4958366;28;20231;-82
2023/12/28 11:19:10;;;;;;;10.33;2.40;;;10.10;99.90;;;;;;4963875;28;20301;-82
2023/12/28 11:21:38;;;;;;;11.23;2.60;;;10.10;99.90;;;;;;4962736;28;20309;-82
2023/12/28 11:24:06;;;;;;;8.87;2.60;;;10.20;99.90;;;;;;4961223;28;20238;-82
2023/12/28 11:26:33;;;;;;;8.30;2.87;;;10.20;99.90;;;;;;4978003;28;20262;-83
2023/12/28 11:29:02;;;;;;;10.40;2.70;;;10.20;99.90;;;;;;4967744;28;20230;-83
2023/12/28 11:31:33;;;;;;;7.47;2.80;;;10.20;99.90;;;;;;4947445;28;20226;-83
2023/12/28 11:34:00;;;;;;;11.00;2.70;;;10.20;99.90;;;;;;4966346;28;20243;-83
2023/12/28 11:36:35;;;;;;;10.17;2.73;;;10.20;99.90;;;;;;4963042;28;20301;-83
2023/12/28 11:39:03;;;;;;;9.47;2.77;;;10.20;99.90;;;;;;4989905;28;20229;-82
2023/12/28 11:41:32;;;;;;;9.60;2.53;;;10.20;99.90;;;;;;4964509;28;20241;-83
2023/12/28 11:44:04;;;;;;;14.53;3.67;;;10.20;99.90;;;;;;4961980;28;20235;-82
2023/12/28 11:46:33;;;;;;;10.07;3.53;;;10.20;99.90;;;;;;4974565;28;20270;-83
2023/12/28 11:49:07;;;;;;;11.93;3.07;;;10.20;99.90;;;;;;4964123;28;20228;-83
2023/12/28 11:51:37;;;;;;;10.50;2.93;;;10.20;99.90;;;;;;4957035;28;20231;-83
2023/12/28 11:54:04;;;;;;;11.57;3.00;;;10.20;99.90;;;;;;4955694;28;20609;-82
2023/12/28 11:56:32;;;;;;;12.97;3.10;;;10.10;99.90;;;;;;4962863;28;20318;-82
2023/12/28 11:58:59;;;;;;;11.17;2.67;;;10.20;99.90;;;;;;4958501;28;20238;-82
2023/12/28 12:01:26;;;;;;;9.53;2.87;;;10.10;99.90;;;;;;4949496;28;20231;-82
2023/12/28 12:03:54;;;;;;;9.73;3.17;;;10.10;99.90;;;;;;4957695;28;20312;-83
2023/12/28 12:06:21;;;;;;;10.07;3.10;;;10.10;99.90;;;;;;4963752;28;20254;-82
2023/12/28 12:08:49;;;;;;;10.00;3.07;;;10.10;99.90;;;;;;4961930;28;20314;-83
2023/12/28 12:11:18;;;;;;;12.37;3.00;;;10.10;99.90;;;;;;4954165;28;20254;-82
2023/12/28 12:13:45;;;;;;;10.07;3.33;;;10.10;99.90;;;;;;4956864;28;20677;-82
2023/12/28 12:16:15;;;;;;;12.17;3.50;;;10.10;99.90;;;;;;4962027;28;20236;-82
2023/12/28 12:18:41;;;;;;;10.63;2.67;;;10.10;99.90;;;;;;4961431;28;20257;-82
2023/12/28 12:21:10;;;;;;;10.33;3.00;;;10.00;99.90;;;;;;4961268;28;20849;-83
2023/12/28 12:23:37;;;;;;;11.53;3.20;;;10.10;99.90;;;;;;4961775;28;20721;-83
2023/12/28 12:26:06;;;;;;;11.33;3.50;;;10.00;99.90;;;;;;4967686;28;20492;-83
2023/12/28 12:28:33;;;;;;;11.30;3.10;;;10.10;99.90;;;;;;4951876;28;20729;-83
2023/12/28 12:31:01;;;;;;;8.93;2.70;;;10.10;99.90;;;;;;4973628;28;20263;-83
2023/12/28 12:33:28;;;;;;;12.70;3.30;;;10.10;99.90;;;;;;4957265;28;20244;-81
2023/12/28 12:35:55;;;;;;;10.27;2.83;;;10.10;99.90;;;;;;4963583;28;20784;-82
2023/12/28 12:38:23;;;;;;;9.87;2.70;;;10.10;99.90;;;;;;4960789;28;20237;-82
2023/12/28 12:40:52;;;;;;;12.77;3.90;;;10.10;99.90;;;;;;4959685;28;20220;-83
2023/12/28 12:43:20;;;;;;;13.33;3.00;;;10.10;99.90;;;;;;4964669;28;20651;-81
2023/12/28 12:45:46;;;;;;;13.43;3.20;;;10.00;99.90;;;;;;4981445;28;20234;-83
2023/12/28 12:48:13;;;;;;;13.33;3.33;;;10.10;99.90;;;;;;4976004;28;20579;-83
2023/12/28 12:50:40;;;;;;;11.10;3.00;;;10.10;99.90;;;;;;4963653;28;20249;-82
2023/12/28 12:53:06;;;;;;;10.63;3.10;;;10.10;99.90;;;;;;4962689;28;20319;-82
2023/12/28 12:55:38;;;;;;;11.80;2.97;;;10.10;99.90;;;;;;4965612;28;20497;-82